createdAt,value
2019-06-07T00:00:40.354Z,6.07
2019-06-07T00:03:30.293Z,6.30
2019-06-07T00:06:23.744Z,6.07
2019-06-07T00:09:10.471Z,5.87
2019-06-07T00:12:00.611Z,5.33
2019-06-07T00:14:48.828Z,6.50
2019-06-07T00:17:38.746Z,6.80
2019-06-07T00:20:27.697Z,6.80
2019-06-07T00:23:20.660Z,6.70
2019-06-07T00:26:05.839Z,7.50
2019-06-07T00:28:54.578Z,6.57
2019-06-07T00:31:44.450Z,8.20
2019-06-07T00:34:32.827Z,7.57
2019-06-07T00:40:16.323Z,8.40
2019-06-07T00:42:58.743Z,7.23
2019-06-07T00:45:47.562Z,6.60
2019-06-07T00:48:36.777Z,7.63
2019-06-07T00:51:25.506Z,7.53
2019-06-07T00:54:17.099Z,8.37
2019-06-07T00:57:04.696Z,7.93
2019-06-07T00:59:53.942Z,6.90
2019-06-07T01:02:43.480Z,8.53
2019-06-07T01:05:33.150Z,8.27
2019-06-07T01:08:28.272Z,7.97
2019-06-07T01:11:15.909Z,7.80
2019-06-07T01:14:04.154Z,8.70
2019-06-07T01:16:59.495Z,8.00
2019-06-07T01:19:44.470Z,8.37
2019-06-07T01:22:33.087Z,9.00
2019-06-07T01:25:22.723Z,8.97
2019-06-07T01:28:11.962Z,8.67
2019-06-07T01:31:00.834Z,8.80
2019-06-07T01:33:51.109Z,7.43
2019-06-07T01:36:40.823Z,9.33
2019-06-07T01:42:18.178Z,8.87
2019-06-07T01:45:07.221Z,8.00
2019-06-07T01:47:55.983Z,9.10
2019-06-07T01:50:45.427Z,8.20
2019-06-07T01:53:33.659Z,9.00
2019-06-07T01:56:26.581Z,8.13
2019-06-07T01:59:14.342Z,8.00
2019-06-07T02:02:03.655Z,9.23
2019-06-07T02:04:53.034Z,8.30
2019-06-07T02:07:41.746Z,7.87
2019-06-07T02:10:33.459Z,7.73
2019-06-07T02:13:23.717Z,8.37
2019-06-07T02:16:13.784Z,9.07
2019-06-07T02:19:08.917Z,7.57
2019-06-07T02:21:57.224Z,8.23
2019-06-07T02:24:46.044Z,6.73
2019-06-07T02:27:34.812Z,8.57
2019-06-07T02:30:40.655Z,8.20
2019-06-07T02:33:12.823Z,8.10
2019-06-07T02:36:01.176Z,8.50
2019-06-07T02:38:49.850Z,7.70
2019-06-07T02:41:40.457Z,7.50
2019-06-07T02:44:34.855Z,8.93
2019-06-07T02:47:19.628Z,7.33
2019-06-07T02:50:09.343Z,8.40
2019-06-07T02:52:57.924Z,8.30
2019-06-07T02:56:33.994Z,8.17
2019-06-07T02:58:43.253Z,7.57
2019-06-07T03:01:39.470Z,9.30
2019-06-07T03:04:27.176Z,7.93
2019-06-07T03:10:13.513Z,9.17
2019-06-07T03:13:02.391Z,7.63
2019-06-07T03:15:53.862Z,8.07
2019-06-07T03:19:06.654Z,8.73
2019-06-07T03:21:55.465Z,7.93
2019-06-07T03:24:44.762Z,7.70
2019-06-07T03:27:41.346Z,9.20
2019-06-07T03:30:39.049Z,9.03
2019-06-07T03:33:13.188Z,9.50
2019-06-07T03:36:13.037Z,9.10
2019-06-07T03:38:52.485Z,9.10
2019-06-07T03:42:04.650Z,8.17
2019-06-07T03:44:35.128Z,6.87
2019-06-07T03:47:22.082Z,7.83
2019-06-07T03:50:10.961Z,8.40
2019-06-07T03:52:59.078Z,8.13
2019-06-07T03:55:48.111Z,7.83
2019-06-07T03:58:47.906Z,7.37
2019-06-07T04:01:28.574Z,6.57
2019-06-07T04:04:18.882Z,8.67
2019-06-07T04:07:08.054Z,8.43
2019-06-07T04:09:57.631Z,7.60
2019-06-07T04:12:46.748Z,8.37
2019-06-07T04:15:38.356Z,8.97
2019-06-07T04:18:26.495Z,8.77
2019-06-07T04:21:14.724Z,8.50
2019-06-07T04:24:03.447Z,8.23
2019-06-07T04:26:51.571Z,8.30
2019-06-07T04:30:04.855Z,7.60
2019-06-07T04:32:31.292Z,7.30
2019-06-07T04:38:07.251Z,7.90
2019-06-07T04:40:56.823Z,8.67
2019-06-07T04:43:46.172Z,8.23
2019-06-07T04:46:39.049Z,8.63
2019-06-07T04:49:25.936Z,8.57
2019-06-07T04:52:14.296Z,9.07
2019-06-07T04:55:04.199Z,9.23
2019-06-07T04:57:53.078Z,7.80
2019-06-07T05:01:03.056Z,9.23
2019-06-07T05:03:46.640Z,8.47
2019-06-07T05:06:42.625Z,9.27
2019-06-07T05:09:33.258Z,8.40
2019-06-07T05:12:23.478Z,9.07
2019-06-07T05:15:11.490Z,8.67
2019-06-07T05:18:00.223Z,7.60
2019-06-07T05:20:49.030Z,7.70
2019-06-07T05:26:27.936Z,9.50
2019-06-07T05:29:16.595Z,7.90
2019-06-07T05:32:04.990Z,9.30
2019-06-07T05:34:54.004Z,7.97
2019-06-07T05:37:45.771Z,8.30
2019-06-07T05:40:36.725Z,8.63
2019-06-07T05:43:25.406Z,7.77
2019-06-07T05:46:14.506Z,8.57
2019-06-07T05:49:03.116Z,7.67
2019-06-07T05:51:51.777Z,8.20
2019-06-07T05:54:43.177Z,8.07
2019-06-07T05:57:30.563Z,7.67
2019-06-07T06:00:20.289Z,7.90
2019-06-07T06:03:09.098Z,7.53
2019-06-07T06:05:58.323Z,7.60
2019-06-07T06:08:47.907Z,7.23
2019-06-07T06:11:49.471Z,8.30
2019-06-07T06:14:29.920Z,8.40
2019-06-07T06:17:19.237Z,6.87
2019-06-07T06:20:08.255Z,8.03
2019-06-07T06:22:56.558Z,7.60
2019-06-07T06:25:50.819Z,6.80
2019-06-07T06:28:36.931Z,7.10
2019-06-07T06:31:25.523Z,7.30
2019-06-07T06:34:15.580Z,7.10
2019-06-07T06:37:10.197Z,7.10
2019-06-07T06:39:59.283Z,6.53
2019-06-07T06:42:49.029Z,7.03
2019-06-07T06:45:38.106Z,6.43
2019-06-07T06:48:27.122Z,6.63
2019-06-07T06:51:15.215Z,7.70
2019-06-07T06:54:04.355Z,7.10
2019-06-07T06:56:53.857Z,7.67
2019-06-07T06:59:45.402Z,6.10
2019-06-07T07:02:34.492Z,6.63
2019-06-07T07:05:24.386Z,6.10
2019-06-07T07:08:13.746Z,5.63
2019-06-07T07:11:03.264Z,6.10
2019-06-07T07:13:55.849Z,5.90
2019-06-07T07:16:42.850Z,5.53
2019-06-07T07:19:32.711Z,6.20
2019-06-07T07:22:21.737Z,5.40
2019-06-07T07:25:10.210Z,5.90
2019-06-07T07:27:58.571Z,6.00
2019-06-07T07:30:52.669Z,5.37
2019-06-07T07:34:23.825Z,6.33
2019-06-07T07:36:39.190Z,5.23
2019-06-07T07:39:20.393Z,5.50
2019-06-07T07:42:20.699Z,5.70
2019-06-07T07:44:59.841Z,5.20
2019-06-07T07:48:05.496Z,5.60
2019-06-07T07:50:39.010Z,5.47
2019-06-07T07:53:45.337Z,5.17
2019-06-07T07:59:06.056Z,4.57
2019-06-07T08:01:56.066Z,4.20
2019-06-07T08:05:19.643Z,4.23
2019-06-07T08:07:36.564Z,4.60
2019-06-07T08:10:25.617Z,4.30
2019-06-07T08:13:24.674Z,4.37
2019-06-07T08:16:12.278Z,4.30
2019-06-07T08:19:00.342Z,4.60
2019-06-07T08:21:47.945Z,4.93
2019-06-07T08:24:37.169Z,4.27
2019-06-07T08:27:27.148Z,4.10
2019-06-07T08:30:47.115Z,4.50
2019-06-07T08:33:25.339Z,3.90
2019-06-07T08:36:10.442Z,4.90
2019-06-07T08:38:52.278Z,3.67
2019-06-07T08:41:53.481Z,4.53
2019-06-07T08:44:28.583Z,3.97
2019-06-07T08:47:20.910Z,4.20
2019-06-07T08:50:08.934Z,3.97
2019-06-07T08:53:05.115Z,4.90
2019-06-07T08:55:52.423Z,3.97
2019-06-07T08:58:41.386Z,3.27
2019-06-07T09:01:29.998Z,4.13
2019-06-07T09:04:19.099Z,3.67
2019-06-07T09:07:19.203Z,4.30
2019-06-07T09:10:07.017Z,3.73
2019-06-07T09:12:49.395Z,3.93
2019-06-07T09:15:38.046Z,3.33
2019-06-07T09:18:44.215Z,3.03
2019-06-07T09:21:16.246Z,3.37
2019-06-07T09:24:11.480Z,2.43
2019-06-07T09:26:57.703Z,3.93
2019-06-07T09:29:46.010Z,3.27
2019-06-07T09:32:34.951Z,3.30
2019-06-07T09:35:24.952Z,3.03
2019-06-07T09:38:25.109Z,3.10
2019-06-07T09:41:06.137Z,3.63
2019-06-07T09:47:19.935Z,2.80
2019-06-07T09:49:52.050Z,3.07
2019-06-07T09:52:57.072Z,3.30
2019-06-07T09:55:31.225Z,2.67
2019-06-07T10:01:13.738Z,3.10
2019-06-07T10:04:08.269Z,3.10
2019-06-07T10:06:54.240Z,3.30
2019-06-07T10:10:10.043Z,2.60
2019-06-07T10:12:33.635Z,4.13
2019-06-07T10:15:23.012Z,3.40
2019-06-07T10:18:11.083Z,3.97
2019-06-07T10:21:01.354Z,3.77
2019-06-07T10:23:50.354Z,3.77
2019-06-07T10:26:39.483Z,3.03
2019-06-07T10:29:27.749Z,3.30
2019-06-07T10:32:15.863Z,2.87
2019-06-07T10:35:05.041Z,4.07
2019-06-07T10:40:42.278Z,3.00
2019-06-07T10:43:31.526Z,3.57
2019-06-07T10:46:20.324Z,3.53
2019-06-07T10:49:10.095Z,3.70
2019-06-07T10:52:02.900Z,3.67
2019-06-07T10:54:49.951Z,3.80
2019-06-07T10:57:38.510Z,3.70
2019-06-07T11:00:26.802Z,4.10
2019-06-07T11:03:15.591Z,3.13
2019-06-07T11:06:05.703Z,3.30
2019-06-07T11:08:54.331Z,3.77
2019-06-07T11:11:42.998Z,3.30
2019-06-07T11:14:31.327Z,3.77
2019-06-07T11:17:19.467Z,4.13
2019-06-07T11:20:10.171Z,3.90
2019-06-07T11:22:59.536Z,4.10
2019-06-07T11:25:48.094Z,3.63
2019-06-07T11:28:36.427Z,3.70
2019-06-07T11:31:24.690Z,3.30
2019-06-07T11:34:14.645Z,3.60
2019-06-07T11:37:03.156Z,4.37
2019-06-07T11:39:52.294Z,4.00
2019-06-07T11:42:40.320Z,4.40
2019-06-07T11:45:30.218Z,4.67
2019-06-07T11:48:19.189Z,4.17
2019-06-07T11:51:08.556Z,4.37
2019-06-07T11:53:58.610Z,4.03
2019-06-07T11:56:47.482Z,3.40
2019-06-07T11:59:38.110Z,4.17
2019-06-07T12:02:28.217Z,4.00
2019-06-07T12:05:20.124Z,4.33
2019-06-07T12:08:14.316Z,5.03
2019-06-07T12:11:03.881Z,4.50
2019-06-07T12:13:52.615Z,4.43
2019-06-07T12:16:45.260Z,3.80
2019-06-07T12:19:34.323Z,4.50
2019-06-07T12:22:23.195Z,4.40
2019-06-07T12:25:12.545Z,4.30
2019-06-07T12:28:02.403Z,4.03
2019-06-07T12:30:54.536Z,3.80
2019-06-07T12:33:41.033Z,4.07
2019-06-07T12:36:31.318Z,3.50
2019-06-07T12:39:20.136Z,4.27
2019-06-07T12:42:09.606Z,4.03
2019-06-07T12:44:58.795Z,3.63
2019-06-07T12:50:44.336Z,4.30
2019-06-07T12:53:34.554Z,3.90
2019-06-07T12:56:24.200Z,4.93
2019-06-07T12:59:13.910Z,4.10
2019-06-07T13:02:05.950Z,4.10
2019-06-07T13:04:55.959Z,4.40
2019-06-07T13:07:44.682Z,4.57
2019-06-07T13:10:34.635Z,4.90
2019-06-07T13:13:24.655Z,4.30
2019-06-07T13:16:13.734Z,4.30
2019-06-07T13:19:02.550Z,3.70
2019-06-07T13:21:51.106Z,4.57
2019-06-07T13:24:39.739Z,4.27
2019-06-07T13:27:32.920Z,3.90
2019-06-07T13:30:20.781Z,4.40
2019-06-07T13:33:10.655Z,3.77
2019-06-07T13:35:59.675Z,3.80
2019-06-07T13:38:49.145Z,4.40
2019-06-07T13:41:42.846Z,4.77
2019-06-07T13:44:29.335Z,4.50
2019-06-07T13:47:19.452Z,4.27
2019-06-07T13:50:10.977Z,4.07
2019-06-07T13:52:59.694Z,3.63
2019-06-07T13:55:48.684Z,4.27
2019-06-07T13:58:38.229Z,3.90
2019-06-07T14:01:28.998Z,4.20
2019-06-07T14:04:20.799Z,4.43
2019-06-07T14:07:10.263Z,4.73
2019-06-07T14:09:58.349Z,3.53
2019-06-07T14:12:47.151Z,3.73
2019-06-07T14:15:36.491Z,3.80
2019-06-07T14:18:26.453Z,3.73
2019-06-07T14:21:15.488Z,4.10
2019-06-07T14:24:05.028Z,3.90
2019-06-07T14:27:06.549Z,3.93
2019-06-07T14:29:55.516Z,3.87
2019-06-07T14:32:44.111Z,4.50
2019-06-07T14:35:33.663Z,4.30
2019-06-07T14:38:23.051Z,3.90
2019-06-07T14:41:12.834Z,8.63
2019-06-07T14:44:01.740Z,5.87
2019-06-07T14:46:50.895Z,4.80
2019-06-07T14:49:40.073Z,5.73
2019-06-07T14:52:30.699Z,4.43
2019-06-07T14:55:19.386Z,4.60
2019-06-07T14:58:08.597Z,3.83
2019-06-07T15:01:05.351Z,4.50
2019-06-07T15:03:59.450Z,4.10
2019-06-07T15:06:49.337Z,4.17
2019-06-07T15:09:39.280Z,4.20
2019-06-07T15:12:29.419Z,4.37
2019-06-07T15:15:19.142Z,3.73
2019-06-07T15:18:07.994Z,7.67
2019-06-07T15:20:56.345Z,4.53
2019-06-07T15:23:44.951Z,4.00
2019-06-07T15:26:34.567Z,4.00
2019-06-07T15:29:23.770Z,4.73
2019-06-07T15:32:13.135Z,3.70
2019-06-07T15:35:02.307Z,4.13
2019-06-07T15:37:51.526Z,3.90
2019-06-07T15:40:41.063Z,3.73
2019-06-07T15:43:31.080Z,4.03
2019-06-07T15:46:20.149Z,3.97
2019-06-07T15:49:09.420Z,3.77
2019-06-07T15:51:57.703Z,4.43
2019-06-07T15:54:46.495Z,4.30
2019-06-07T15:57:37.257Z,4.10
2019-06-07T16:00:26.087Z,4.30
2019-06-07T16:03:15.630Z,5.67
2019-06-07T16:06:04.384Z,4.50
2019-06-07T16:08:53.248Z,4.00
2019-06-07T16:11:44.627Z,4.13
2019-06-07T16:14:35.001Z,4.20
2019-06-07T16:17:23.423Z,4.43
2019-06-07T16:20:11.638Z,4.00
2019-06-07T16:22:59.857Z,4.10
2019-06-07T16:25:48.247Z,4.40
2019-06-07T16:28:36.734Z,4.03
2019-06-07T16:31:25.331Z,4.33
2019-06-07T16:34:13.986Z,4.83
2019-06-07T16:37:02.128Z,4.60
2019-06-07T16:39:51.106Z,4.33
2019-06-07T16:42:40.607Z,4.30
2019-06-07T16:45:29.115Z,3.97
2019-06-07T16:48:24.980Z,4.43
2019-06-07T16:51:15.164Z,4.60
2019-06-07T16:54:03.531Z,4.50
2019-06-07T16:56:52.513Z,3.63
2019-06-07T16:59:41.190Z,4.30
2019-06-07T17:02:29.857Z,3.90
2019-06-07T17:05:19.675Z,4.23
2019-06-07T17:08:08.946Z,4.60
2019-06-07T17:10:58.952Z,4.17
2019-06-07T17:13:48.555Z,3.97
2019-06-07T17:16:38.842Z,4.30
2019-06-07T17:19:28.146Z,4.20
2019-06-07T17:22:17.272Z,4.23
2019-06-07T17:25:06.080Z,4.40
2019-06-07T17:27:54.658Z,4.93
2019-06-07T17:30:44.002Z,4.77
2019-06-07T17:33:32.869Z,4.20
2019-06-07T17:36:21.501Z,4.07
2019-06-07T17:39:10.459Z,3.70
2019-06-07T17:42:02.182Z,4.27
2019-06-07T17:44:49.463Z,4.20
2019-06-07T17:47:45.841Z,4.13
2019-06-07T17:50:35.948Z,3.47
2019-06-07T17:53:24.284Z,4.00
2019-06-07T17:56:14.109Z,4.43
2019-06-07T17:59:02.576Z,3.90
2019-06-07T18:02:13.349Z,4.07
2019-06-07T18:04:45.136Z,4.13
2019-06-07T18:07:33.442Z,3.87
2019-06-07T18:10:36.531Z,4.07
2019-06-07T18:13:25.774Z,4.10
2019-06-07T18:16:14.353Z,4.40
2019-06-07T18:19:03.062Z,3.90
2019-06-07T18:21:56.048Z,3.27
2019-06-07T18:24:41.927Z,4.07
2019-06-07T18:27:30.156Z,3.50
2019-06-07T18:30:18.487Z,4.60
2019-06-07T18:33:07.416Z,3.87
2019-06-07T18:35:56.490Z,3.93
2019-06-07T18:38:47.059Z,4.43
2019-06-07T18:41:36.181Z,4.13
2019-06-07T18:44:24.512Z,4.30
2019-06-07T18:47:14.151Z,4.00
2019-06-07T18:50:03.698Z,4.17
2019-06-07T18:52:53.099Z,4.70
2019-06-07T18:55:44.243Z,4.60
2019-06-07T18:58:32.956Z,4.53
2019-06-07T19:01:21.754Z,3.83
2019-06-07T19:04:11.213Z,4.43
2019-06-07T19:07:00.560Z,4.43
2019-06-07T19:09:50.571Z,4.60
2019-06-07T19:12:40.137Z,4.00
2019-06-07T19:15:28.668Z,3.93
2019-06-07T19:18:18.380Z,4.07
2019-06-07T19:21:06.788Z,3.87
2019-06-07T19:23:55.963Z,4.53
2019-06-07T19:26:44.998Z,4.70
2019-06-07T19:29:34.682Z,4.60
2019-06-07T19:32:28.198Z,4.47
2019-06-07T19:35:17.894Z,5.13
2019-06-07T19:38:12.178Z,4.67
2019-06-07T19:41:16.469Z,4.97
2019-06-07T19:43:52.106Z,5.03
2019-06-07T19:46:40.535Z,5.10
2019-06-07T19:49:29.258Z,5.37
2019-06-07T19:52:17.828Z,4.70
2019-06-07T19:55:09.890Z,5.03
2019-06-07T19:57:57.524Z,4.60
2019-06-07T20:00:53.879Z,4.87
2019-06-07T20:03:42.988Z,4.47
2019-06-07T20:06:32.259Z,5.17
2019-06-07T20:09:21.790Z,5.30
2019-06-07T20:12:11.233Z,5.03
2019-06-07T20:15:21.540Z,4.13
2019-06-07T20:17:50.553Z,4.50
2019-06-07T20:20:38.411Z,4.40
2019-06-07T20:23:26.514Z,4.07
2019-06-07T20:26:14.646Z,3.50
2019-06-07T20:29:03.522Z,2.97
2019-06-07T20:31:52.416Z,1.57
2019-06-07T20:34:44.717Z,1.50
2019-06-07T20:37:33.509Z,1.60
2019-06-07T20:40:24.941Z,1.57
2019-06-07T20:43:13.340Z,1.83
2019-06-07T20:46:03.465Z,1.27
2019-06-07T20:48:52.698Z,1.60
2019-06-07T20:51:43.026Z,1.07
2019-06-07T20:54:32.082Z,1.33
2019-06-07T20:57:20.051Z,1.40
2019-06-07T21:00:16.002Z,0.93
2019-06-07T21:03:05.417Z,1.00
2019-06-07T21:05:55.269Z,1.17
2019-06-07T21:08:44.005Z,1.20
2019-06-07T21:11:31.999Z,0.93
2019-06-07T21:14:20.882Z,1.13
2019-06-07T21:17:10.328Z,0.90
2019-06-07T21:19:58.350Z,1.20
2019-06-07T21:22:46.895Z,0.60
2019-06-07T21:25:36.162Z,1.17
2019-06-07T21:28:25.824Z,0.90
2019-06-07T21:31:14.399Z,0.97
2019-06-07T21:34:03.757Z,1.20
2019-06-07T21:36:52.950Z,1.23
2019-06-07T21:39:41.789Z,1.30
2019-06-07T21:42:30.443Z,1.40
2019-06-07T21:45:19.153Z,1.10
2019-06-07T21:48:08.946Z,0.70
2019-06-07T21:50:57.851Z,1.00
2019-06-07T21:53:47.141Z,1.00
2019-06-07T21:56:37.141Z,0.83
2019-06-07T21:59:25.736Z,0.83
2019-06-07T22:02:14.558Z,1.00
2019-06-07T22:05:05.560Z,0.90
2019-06-07T22:07:54.831Z,0.90
2019-06-07T22:10:50.963Z,0.80
2019-06-07T22:13:39.151Z,1.07
2019-06-07T22:16:29.353Z,0.73
2019-06-07T22:19:18.133Z,0.90
2019-06-07T22:22:07.855Z,1.10
2019-06-07T22:24:57.293Z,0.67
2019-06-07T22:27:45.811Z,0.90
2019-06-07T22:30:34.824Z,0.87
2019-06-07T22:33:23.052Z,1.00
2019-06-07T22:36:13.115Z,1.10
2019-06-07T22:39:02.007Z,0.70
2019-06-07T22:41:53.230Z,0.70
2019-06-07T22:44:41.751Z,0.73
2019-06-07T22:47:30.953Z,0.80
2019-06-07T22:50:19.922Z,0.77
2019-06-07T22:53:09.457Z,0.60
2019-06-07T22:56:04.579Z,0.50
2019-06-07T22:58:52.873Z,0.70
2019-06-07T23:01:41.781Z,0.77
2019-06-07T23:04:46.043Z,0.63
2019-06-07T23:07:34.650Z,0.73
2019-06-07T23:10:22.732Z,0.80
2019-06-07T23:13:11.989Z,0.93
2019-06-07T23:16:00.164Z,1.27
2019-06-07T23:18:48.659Z,0.73
2019-06-07T23:21:36.813Z,1.13
2019-06-07T23:24:26.507Z,1.00
2019-06-07T23:27:16.440Z,1.00
2019-06-07T23:30:08.722Z,0.80
2019-06-07T23:32:54.978Z,0.80
2019-06-07T23:35:43.194Z,1.60
2019-06-07T23:38:32.126Z,0.53
2019-06-07T23:41:22.330Z,0.97
2019-06-07T23:44:11.732Z,0.83
2019-06-07T23:47:10.727Z,0.77
2019-06-07T23:49:52.111Z,0.73
2019-06-07T23:52:40.973Z,0.90
2019-06-07T23:55:30.497Z,0.73
2019-06-07T23:58:18.605Z,0.70
